XXXI BIEG ULICZNY DĄBROWA CHEŁMIŃSKA - OSTROMECKO

Organizator/ Organizer:
Ludowy Klub Sportowy Ostromecko
Data/ Date:
2018-10-07
Miejsce/ Place:
Dąbrowa - Ostromecko
Dystans/ Distance:
7.5 km
Zgłoszonych/ Registered:
259
Wystartowało/ Started:
193
Nie ukończyło/ Not finished:
0
Ukończyło/ Finished:
193
Na trasie/ On track:
0

Klasyfikacja/ Classiffication: Wszyscy

Wyniki nieoficjalne !!!
Pełne wyniki/ Full Results : PDF | CSV
Wyniki uproszczone/ Simple results : PDF | PDF2 | CSV
 
Klasyfikacje w punktach pomiarowych/ Classification for time points: Meta
Klasyfikacje wg kategorii/ Classification by category: Wszyscy | K Open | M Open | Mieszkanka Gminy Dąbrowa Chełmińska | Mieszkaniec Gminy Dąbrowa Chełmińska | K16 | M16 | K19 | M19 | K20 | M20 | K30 | M30 | K40 | M40 | K50 | M50 | K60 | M60 | K70 | M70

Msc/ RnkZawodnik/ NameNumer/ BibKlub/ TeamMiejscowość/ CityKraj/ CountryKategoria/ CategoryMkat/ CatRnkK/M/ W/MMieszkaniec Gminy Dąbrowa ChełmińskaCzas
netto
7.5km
Czas
brutto
7.5km
Różn/ GapTempo
min/km
Tempo
km/h
       
1METTO David 246ZAWISZA BYDGOSZCZBYDGOSZCZM201M 100:24:22.0000:24:22.00 3:1418.5
2KOTŁOWSKI Bartosz 202LKS OSTROMECKOOSTROMECKOM202M 2Tak00:24:22.3000:24:22.30+00:00:003:1418.5
3BRZEZIŃSKA Aleksandra 252BYDGOSZCZK201K 100:24:55.8500:24:55.85+00:00:333:1918.1
4SKIBA Łukasz 250BYDGOSZCZM301M 300:25:32.3000:25:32.30+00:01:103:2417.6
5KOWALSKA Katarzyna 249WŁOCŁAWEKK301K 200:25:39.0500:25:39.05+00:01:173:2517.5
6LUTOWSKI Wojciech 222TKKF KOLEJARZ BYDGOSZCZBYDGOSZCZM302M 400:26:03.0000:26:03.00+00:01:413:2817.3
7DEROŃ Waldemar 1701 BRYGADA LOGISTYCZNA BYDGOSZCZBYDGOSZCZM303M 500:26:22.7500:26:22.75+00:02:003:3017.1
8STANKIEWICZ Błażej 165LKS OSTROMECKOBYDGOSZCZM401M 600:26:31.5000:26:31.50+00:02:093:3217
9GLUGLA Mariusz 139ŚWIECIEM402M 700:26:48.4500:26:48.45+00:02:263:3416.8
10PAWŁOWSKI Tomasz 22ZIELONKAM203M 800:27:18.3500:27:18.35+00:02:563:3816.5
11MAĆKOWSKI Maciej 124UPS BYDGOSZCZBYDGOSZCZM304M 900:27:41.5500:27:41.55+00:03:193:4116.3
12SZENK Marta 5BYDGOSZCZK302K 300:27:47.0500:27:47.05+00:03:253:4216.2
13BUŚ Szymon 87LKS OSTROMECKOWARSZAWAM204M 1000:28:04.9500:28:04.95+00:03:423:4416
14RETECKI Krzysztof 9BOGMAR / PRESTOOSTROMECKOM403M 11Tak00:28:11.5500:28:11.55+00:03:493:4516
15WILIŃSKI Sebastian 105CZARŻEM305M 12Tak00:28:41.8500:28:41.85+00:04:193:4915.7
16BUDNIK Bartosz 251INOWROCŁAWM161M 1300:29:16.4000:29:16.40+00:04:543:5415.4
17BUKOWIŃSKI Michał 257BYDGOSZCZM404M 1400:29:25.9500:29:25.95+00:05:033:5515.3
18WIĘCKOWSKI Dariusz 72AMS TRIATHLONBYDGOSZCZM306M 1500:29:43.6500:29:43.65+00:05:213:5715.1
19RYMER Jakub 256BYDGOSZCZM307M 1600:29:57.6500:29:57.65+00:05:353:5915
20MOROSZCZAK Bogumił 61SPÓJNIA BIAŁE BŁOTABYDGOSZCZM405M 1700:30:02.8000:30:02.80+00:05:404:0015
21STANKIEWICZ Jacek 125BYDGOSZCZM205M 1800:30:09.5500:30:09.55+00:05:474:0114.9
22PAWŁOWSKI Radosław 21JFTC SUZIELONKAM501M 1900:30:41.5000:30:41.50+00:06:194:0514.7
23GOŁATA Wojciech 3WILCZA WATAHADĄBROWA CHEŁMIŃSKAM308M 20Tak00:30:49.4000:30:49.40+00:06:274:0614.6
24ŚLIWIŃSKI Łukasz 231M309M 21Tak00:30:52.4000:30:52.40+00:06:304:0614.6
25BINKOWSKI Adrian 199PROFESSIONAL HR/CB163GZINM3010M 22Tak00:30:57.8000:30:57.80+00:06:354:0714.5
26ŁADNIAK Dariusz 214CZARNOWOM406M 23Tak00:31:00.9000:31:00.90+00:06:384:0814.5
27ZAKRZEWSKI Mateusz 233STRZYŻAWAM162M 24Tak00:31:01.6500:31:01.65+00:06:394:0814.5
28KRUSZEWSKI Tadeusz 234DĄBROWA CHEŁMIŃSKAM407M 25Tak00:31:10.5500:31:10.55+00:06:484:0914.4
29PRĄDZYŃSKI Marcin 161TRISPACEBYDGOSZCZM408M 2600:31:10.5500:31:10.55+00:06:484:0914.4
30GÓRA Krystian 100FORDONBYDGOSZCZM3011M 2700:31:15.1500:31:15.15+00:06:534:1014.4
31TRZCIŃSKI Franciszek 102CHEŁMNOM502M 2800:31:35.1000:31:35.10+00:07:134:1214.2
32KARNOWSKI Sebastian 101CZEMLEWOM3012M 29Tak00:31:38.9000:31:38.90+00:07:164:1314.2
33MULLERT Karol 242BYDGOSZCZM3013M 3000:31:41.0000:31:41.00+00:07:194:1314.2
34SYROCKI Michał 71WAŁDOWO KRÓLEWSKIEM3014M 31Tak00:31:42.3500:31:42.35+00:07:204:1314.2
35STARSZAK Paweł 83DĄBROWA CHEŁMIŃSKAM409M 32Tak00:31:55.3000:31:55.30+00:07:334:1514.1
36JAROCKA Beata 99DĄBROWA CHEŁMIŃSKAK401K 4Tak00:32:07.5500:32:07.55+00:07:454:1614
37ŚCIBAK Wojciech 263JFTC SUBYDGOSZCZM3015M 3300:32:21.9500:32:21.95+00:07:594:1813.9
38STARSZAK Seweryn 85DĄBROWA CHEŁMIŃSKAM163M 34Tak00:32:26.6000:32:26.60+00:08:044:1913.9
39KOCINIEWSKI Dariusz 114LKS JANOWODĄBROWA CHEŁMIŃSKAM4010M 35Tak00:32:40.3000:32:40.30+00:08:184:2113.8
40NAGÓRSKA Elżbieta 241ŁOCHOWICEK402K 500:32:40.8500:32:40.85+00:08:184:2113.8
41NARTOWSKI Lukasz 151NAWRAM3016M 3600:32:47.9000:32:47.90+00:08:254:2213.7
42PAWŁOWSKI Kamil 23ZIELONKAM206M 3700:32:48.3000:32:48.30+00:08:264:2213.7
43PALACZ Wioletta 152BYDGOSZCZK403K 600:32:53.5000:32:53.50+00:08:314:2313.7
44BAGROWSKI Marek 8UMK COLLEGIUM MEDICUM RATOWNICTWO MEDYCZNE RATUJE I BIEGAJANOWOM503M 38Tak00:33:16.1500:33:16.15+00:08:544:2613.5
45KOCINIEWSKI Wojciech 116LKS JANOWOJANOWO 67M164M 39Tak00:33:26.1000:33:26.10+00:09:044:2713.5
46GZYL Mikolaj 110JANUSZE TRIATHLONU 'EXODUS' TEAMBYDGOSZCZM3017M 4000:33:30.2500:33:30.25+00:09:084:2813.4
47BIELEC Wojciech 76BYDGOSZCZM3018M 4100:33:35.0500:33:35.05+00:09:134:2813.4
48NALEŻYTY Piotr 94KLINIKA TRIATHLONUBYDGOSZCZM3019M 4200:33:37.8000:33:37.80+00:09:154:2813.4
49GRYGIEL Damian 59MOZGOWINAM207M 43Tak00:33:49.1000:33:49.10+00:09:274:3013.3
50MUZIEWICZ Marcel 264UNISŁAWM191M 4400:33:51.0500:33:51.05+00:09:294:3013.3
51GORGOL Tomasz 166LP500BYDGOSZCZM4011M 4500:33:58.9500:33:58.95+00:09:364:3113.2
52WILCZEWSKI Robert 142WOLFPACKTORUŃM4012M 4600:34:06.4500:34:06.45+00:09:444:3213.2
53SOBOCIŃSKI Kamil 153DĄBROWA CHEŁMIŃSKAM3020M 47Tak00:34:08.6000:34:08.60+00:09:464:3313.2
54ĆWIKLIŃSKI Mikołaj 58FULL SERVICE LADIESBYDGOSZCZM208M 4800:34:09.8000:34:09.80+00:09:474:3313.2
55ŚMIGLEWSKI Aleksander 88OSTROMECKOM209M 49Tak00:34:10.7500:34:10.75+00:09:484:3313.2
56ROSIAK Jarek 230TRZEJ KRÓLOWIEBYDGOSZCZM4013M 5000:34:13.5000:34:13.50+00:09:514:3313.2
57KLINIKOWSKI Jacek 31KOCHAM ŻYCIE I...ŚWIEKATOWOM4014M 5100:34:17.1500:34:17.15+00:09:554:3413.1
58KUŚMIEREK Michał 17GZINM3021M 52Tak00:34:20.1000:34:20.10+00:09:584:3413.1
59KOTŁOWSKI Przemysław 163MKS SP 63 BYDGOSZCZBYDGOSZCZM4015M 5300:34:28.0500:34:28.05+00:10:064:3513.1
60KRUCZKOWSKI Piotr 189FUJI KRYSPORT TEAMBYDGOSZCZM504M 5400:34:38.2500:34:38.25+00:10:164:3713
61KOHUTEK Artur 132DĄBROWA CHEŁMIŃSKAM4016M 55Tak00:34:38.8500:34:38.85+00:10:164:3713
62HALINIAK Filip 149DĄBROWA CHEŁMIŃSKAM192M 56Tak00:34:46.4000:34:46.40+00:10:244:3812.9
63BERNACKI Dominik 90CZARNOWOM3022M 5700:34:47.7500:34:47.75+00:10:254:3812.9
64KOCINIEWSKI Łukasz 121LKS JANOWOJANOWOM165M 58Tak00:34:53.2500:34:53.25+00:10:314:3912.9
65BRZOZOWSKA Iwona 86UNISŁAWK404K 700:34:58.7500:34:58.75+00:10:364:3912.9
66LEŚNIAK Adrian 235BYDGOSZCZM3023M 5900:35:00.4000:35:00.40+00:10:384:4012.9
67BIELEC Michał 160BYDGOSZCZM3024M 6000:35:02.2500:35:02.25+00:10:404:4012.8
68PODBIELSKA Alina 46KM UMK TORUŃTORUŃK405K 800:35:04.4500:35:04.45+00:10:424:4012.8
69POLIWODZIŃSKI Michał 179KS WISEŁKA BYDGOSZCZ-FORDONBYDGOSZCZM3025M 6100:35:08.2000:35:08.20+00:10:464:4112.8
70NOWICKI Błażej 128GRUDZIĄDZM193M 6200:35:13.2000:35:13.20+00:10:514:4112.8
71RYMARKIEWICZ Małgorzata 145KLINIKA TRIATHLONUBYDGOSZCZK303K 900:35:14.1500:35:14.15+00:10:524:4112.8
72GANDZIAROWSKA Anna 186OTOWICEK202K 10Tak00:35:23.8500:35:23.85+00:11:014:4312.7
73NOWAKOWSKI Grzegorz 219DEAFBYDGOSZCZM3026M 6300:35:29.3500:35:29.35+00:11:074:4312.7
74KOSIŁO Marcin 127RUNBUSTERSBYDGOSZCZM3027M 6400:35:33.3500:35:33.35+00:11:114:4412.7
75WESTFALEWSKI Tomasz 164LKS BOGMAR OSTROMECKOOSTROMECKOM2010M 65Tak00:35:33.7500:35:33.75+00:11:114:4412.7
76KOCINIEWSKI Franciszek 115LKS JANOWOJANOWO 67M194M 66Tak00:35:33.9000:35:33.90+00:11:114:4412.7
77JANUS Dawid 228THE RUNNERS ŚWIECIEŚWIECIEM3028M 6700:35:36.2500:35:36.25+00:11:144:4412.6
78KURBIEL-SYROCKA Aleksandra 69OSTROŁĘKAK203K 1100:35:41.6000:35:41.60+00:11:194:4512.6
79GÓRECKA Marta 135DĄBROWA CHEŁMIŃSKAK191K 12Tak00:35:47.3500:35:47.35+00:11:254:4612.6
80CABAJ Agata 24BYDGOSZCZK204K 1300:35:47.5000:35:47.50+00:11:254:4612.6
81MALEC Kamil 140SŁOMOWOM2011M 6800:35:48.9500:35:48.95+00:11:264:4612.6
82WOJCIECHOWSKI Jarosław 154BYDGOSZCZM4017M 6900:35:49.8000:35:49.80+00:11:274:4612.6
83RUTKOWSKI Tomasz 36BRAKSTRZYŻAWAM4018M 70Tak00:35:59.1500:35:59.15+00:11:374:4712.5
84WALUSIAK Miłosz 156RUN PASJABYDGOSZCZM3029M 7100:36:04.0500:36:04.05+00:11:424:4812.5
85KANIEWSKA Alicja 91AKADEMIA BIEGANIA GRUDZIĄDZGRUDZIĄDZK501K 1400:36:04.1500:36:04.15+00:11:424:4812.5
86PIWOŃSKI Robert 45PARAFIALNY KLUB BIEGACZA TORUŃ - KASZCZOREKTORUŃM4019M 7200:36:06.3000:36:06.30+00:11:444:4812.5
87RZEPKA Ewa 239WIELKI GŁĘBOCZEKK406K 1500:36:20.1500:36:20.15+00:11:584:5012.4
88RZEPKA Andrzej 238WIELKI GŁĘBOCZEKM4020M 7300:36:20.2000:36:20.20+00:11:584:5012.4
89ZGLINSKA Anna 134UNISLAWK304K 1600:36:31.1000:36:31.10+00:12:094:5212.3
90TARGOWSKI Marcin 130MKS SP 63 BYDGOSZCZBYDGOSZCZM3030M 7400:36:31.1500:36:31.15+00:12:094:5212.3
91TRUDNOWSKI Janusz 78BYDGOSZCZM701M 7500:36:35.9500:36:35.95+00:12:134:5212.3
92SOSIŃSKA Izabela 30GZINK305K 17Tak00:36:40.2500:36:40.25+00:12:184:5312.3
93KOCINIEWSKI Bartlomiej 89LKS JANOWOJANOWOM3031M 76Tak00:36:49.5000:36:49.50+00:12:274:5412.2
94BIEŃKOWSKI Tomasz 95BYDGOSZCZM601M 7700:37:03.3000:37:03.30+00:12:414:5612.1
95KALEC Marcin 253OSTROMECKOM2012M 78Tak00:37:21.0500:37:21.05+00:12:594:5812
96ŚLIWIŃSKI Piotr 262GZINM2013M 79Tak00:37:21.5000:37:21.50+00:12:594:5812
97SIUDA Marek 146BYDGOSZCZM4021M 8000:37:24.1500:37:24.15+00:13:024:5912
98PERLIK Grzegorz 196BYDGOSZCZM602M 8100:37:25.2000:37:25.20+00:13:034:5912
99WOJCIECHOWSKA Emilia 155BYDGOSZCZK407K 1800:37:29.1500:37:29.15+00:13:074:5912
100RADOWSKA Helena 144BYDGOSZCZK502K 1900:37:29.6500:37:29.65+00:13:074:5912
101SOBOLEWSKA Aleksandra 108BYDGOSZCZK205K 2000:37:33.2000:37:33.20+00:13:115:0012
102KOWALCZYK Robert 237OSTROMECKOM4022M 82Tak00:37:34.1500:37:34.15+00:13:125:0012
103POTRZEBOWSKA Agata 10DEAFBYDGOSZCZK306K 2100:37:35.9500:37:35.95+00:13:135:0012
104ZIÓŁKOWSKA Katarzyna 109CHEŁMŻAK206K 2200:37:38.3500:37:38.35+00:13:165:0112
105MANDRA Wojciech 68CZARŻEM3032M 83Tak00:37:42.0000:37:42.00+00:13:205:0111.9
106PRZYBORSKI Marcin 41BRAKBYDGOSZCZM3033M 8400:37:43.2000:37:43.20+00:13:215:0111.9
107SOSIŃSKI Paweł 29GZINM3034M 85Tak00:37:51.5000:37:51.50+00:13:295:0211.9
108KUZIOŁA Łukasz 225OSTROMECKOM4023M 86Tak00:37:57.3000:37:57.30+00:13:355:0311.9
109ŁOŚ Dariusz 243M603M 8700:38:05.7500:38:05.75+00:13:435:0411.8
110OSIECKI Grzegorz 141KISIELICEM604M 8800:38:16.4000:38:16.40+00:13:545:0611.8
111KAMINSKI Stefan 15REKREACJATORUNM702M 8900:38:19.0000:38:19.00+00:13:575:0611.7
112CZYŻAK Joanna 67AMSNOWY DWÓRK408K 23Tak00:38:22.3500:38:22.35+00:14:005:0611.7
113SOBCZAK Krzysztof 245BYDGOSZCZM3035M 9000:38:22.4500:38:22.45+00:14:005:0611.7
114GAPPA Karolina 203SĘPÓLNO KRAJEŃSKIEK207K 2400:38:25.5500:38:25.55+00:14:035:0711.7
115RUTKOWSKI Kamil 44BRAKSTRZYŻAWAM195M 91Tak00:38:27.5500:38:27.55+00:14:055:0711.7
116HALINIAK Jakub 148DĄBROWA CHEŁMIŃSKAM166M 92Tak00:38:28.5000:38:28.50+00:14:065:0711.7
117BANACH Grzegorz 82WAŁDOWO KRÓLEWSKIEM505M 93Tak00:38:53.0000:38:53.00+00:14:315:1111.6
118ŚLIWIŃSKI Mariusz 159KS CZEMLEWOCZEMLEWOM3036M 94Tak00:39:00.1500:39:00.15+00:14:385:1211.5
119BŁAŻEJEWSKI Dariusz 75KLUB HDK ŚWIECIEŚWIECIEM506M 9500:39:04.9500:39:04.95+00:14:425:1211.5
120NUNZEK Agnieszka 131JANOWOK409K 25Tak00:39:30.5500:39:30.55+00:15:085:1611.4
121CHABROS Anna 254ŚWIECIEK307K 2600:39:38.6500:39:38.65+00:15:165:1711.4
122POTRZEBOWSKI Marek 65DEAFBYDGOSZCZM3037M 9600:39:43.7500:39:43.75+00:15:215:1711.3
123HALINIAK Dominik 150DĄBROWA CHEŁMIŃSKAM2014M 97Tak00:39:48.4500:39:48.45+00:15:265:1811.3
124BRZOZOWSKI Jarosław 1BRZOZA TRI TEAMBRZOZAM507M 9800:39:50.5000:39:50.50+00:15:285:1811.3
125BORZYSZKOWSKI Grzegorz 6STARY FORDONBYDGOSZCZM3038M 9900:39:53.6500:39:53.65+00:15:315:1911.3
126KUK Bartłomiej Adam 126OSTROMECKOM167M 100Tak00:40:04.8000:40:04.80+00:15:425:2011.2
127ANDERSOHN Pawel 162PSGBYDGOSZCZM4024M 10100:40:10.6500:40:10.65+00:15:485:2111.2
128OŚWIECIŃSKA Karolina 258KOKOCKOK208K 2700:40:12.0000:40:12.00+00:15:505:2111.2
129KOCINIEWSKI Marcin 120LKS JANOWOCZARŻEM3039M 102Tak00:40:17.6500:40:17.65+00:15:555:2211.2
130DŁONIAK Edmund 79TG SOKÓŁ GNIEWKOWOGNIEWKOWOM703M 10300:40:27.2500:40:27.25+00:16:055:2311.1
131SAJUR Sylwia 240BYDGOSZCZK209K 2800:40:30.6000:40:30.60+00:16:085:2411.1
132MIKSZTOWICZ Oliwia 74JANOWOK2010K 29Tak00:40:30.8500:40:30.85+00:16:085:2411.1
133FALKOWSKI Ireneusz 40BRAKBYDGOSZCZM508M 10400:40:36.2500:40:36.25+00:16:145:2411.1
134ZIELIŃSKI Radosław 18BYDGOSZCZM3040M 10500:40:43.4500:40:43.45+00:16:215:2511.1
135FILIPSKA Paulina 96BYDGOSZCZK308K 3000:40:45.5500:40:45.55+00:16:235:2611
136KRÓL Zbigniew 255BYDGOSZCZM4025M 10600:40:58.0000:40:58.00+00:16:365:2711
137SIUDZIŃSKA Anna 62BBKTSBYDGOSZCZK309K 31Yes00:41:01.8000:41:01.80+00:16:395:2811
138RUTKOWSKI Szymon 37BRAKSTRZYŻAWAM168M 107Tak00:41:06.8500:41:06.85+00:16:445:2810.9
139BLEJA Krystian 48PGB SPORTOWA PACZKABYDGOSZCZM3041M 10800:41:18.4500:41:18.45+00:16:565:3010.9
140SZYDŁO Mariusz 168DĄBROWA CHEŁMIŃSKAM169M 109Tak00:41:31.9500:41:31.95+00:17:095:3210.8
141SZYDŁO Adam 169DĄBROWA CHEŁMIŃSKAM1610M 110Tak00:41:32.0000:41:32.00+00:17:105:3210.8
142PANKANIN Agata 147LKS DĄBROWA CHEŁMIŃSKADĄBROWA CHEŁMIŃSKAK161K 32Tak00:41:32.0500:41:32.05+00:17:105:3210.8
143SZYDŁO Sławomir 167DĄBROWA CHEŁMIŃSKAM4026M 111Tak00:41:32.5000:41:32.50+00:17:105:3210.8
144MANDRA Marcin 13TORUŃM3042M 11200:42:34.8000:42:34.80+00:18:125:4010.6
145CIEŚLICKI Krzysztof 236BYDGOSZCZM3043M 11300:42:35.6500:42:35.65+00:18:135:4010.6
146MANISZEWSKI Zbigniew 215UNISŁAWM605M 11400:42:43.6500:42:43.65+00:18:215:4110.5
147STRUTYŃSKI Włodzimierz 55FULL SERVICE LADIESPIGŻAM509M 11500:42:50.2000:42:50.20+00:18:285:4210.5
148ZOLTEK Patryk 122DABROWA CHELMINSKAM2015M 116Tak00:42:50.2000:42:50.20+00:18:285:4210.5
149ŁOŚ Katarzyna 244K503K 3300:42:51.5500:42:51.55+00:18:295:4210.5
150ANDRZEJEWSKI Paweł 248DOBROMIERZM4027M 11700:43:35.1000:43:35.10+00:19:135:4810.3
151ANDRZEJEWSKA Joanna 247DOBROMIERZK4010K 3400:43:35.1000:43:35.10+00:19:135:4810.3
152JAWORSKI Janusz 66TOPORZYSKOM5010M 11800:44:03.7500:44:03.75+00:19:415:5210.2
153WIESE Katarzyna 51FULL SERVICE LADIESBYDGOSZCZK2011K 3500:44:14.9500:44:14.95+00:19:525:5310.2
154WILK Krzysztof 265BOLUMINEKM606M 119Tak00:44:15.2500:44:15.25+00:19:535:5410.2
155NIECHWIEJ Małgorzata 54FULL SERVICE LADIESTCZEWK3010K 3600:44:20.5500:44:20.55+00:19:585:5410.2
156OSZUBSKI Kazimierz 137BYDGOSZCZM4028M 12000:44:51.5500:44:51.55+00:20:295:5810
157ŁEMPICKA Ewelina 171FULL SERVICE LADIESREPTOWOK3011K 37Tak00:44:51.7000:44:51.70+00:20:295:5810
158ŚPICA Dorota 118BYDGOSZCZK504K 3800:44:59.2000:44:59.20+00:20:375:5910
159GOŁATA Agnieszka 4WILCZA WATAHADĄBROWA CHEŁMIŃSKAK3012K 39Tak00:45:08.4000:45:08.40+00:20:466:0110
160STARSZAK Julia 84DĄBROWA CHEŁMIŃSKAK192K 40Tak00:45:19.4000:45:19.40+00:20:576:029.9
161WASIELEWSKA Daria 226BYDGOSZCZK3013K 4100:45:24.0500:45:24.05+00:21:026:039.9
162TOMASZEWSKI Tomasz 232CZARNOWOM3044M 12100:45:25.5000:45:25.50+00:21:036:039.9
163WOLANIN Ola 43SILNOK2012K 4200:45:29.6500:45:29.65+00:21:076:039.9
164ZIĘTEK Paweł 42BYDGOSZCZM2016M 12200:45:29.8500:45:29.85+00:21:076:039.9
165UCIŃSKI Edward 113TTKF INSTALATOR PELIKAN SZUBINSZUBINM704M 12300:45:37.4000:45:37.40+00:21:156:049.9
166ADAMCZEWSKI Łukasz 119KOŁOBRZEGM3045M 12400:45:37.4000:45:37.40+00:21:156:049.9
167KARWICKI Łukasz 25DĄBROWA CHEŁMIŃSKAM3046M 125Yes00:45:50.4000:45:50.40+00:21:286:069.8
168GOLA Grzegorz 73MARKOWOM4029M 12600:46:06.0500:46:06.05+00:21:446:089.8
169ZAWADZKA Małgorzata 260DĄBROWA CHEŁMIŃSKAK3014K 43Tak00:46:30.6500:46:30.65+00:22:086:129.7
170BODEK Małgorzata 267K2013K 4400:46:55.7000:46:55.70+00:22:336:159.6
171SADURSKA Agnieszka 185PANIOTOWICEK2014K 45Tak00:46:55.8500:46:55.85+00:22:336:159.6
172KIEC Dominika 38BYDGOSZCZK2015K 4600:46:56.0000:46:56.00+00:22:346:159.6
173CZAJKOWSKA Adriana 266BYDGOSZCZK2016K 4700:46:56.1500:46:56.15+00:22:346:159.6
174LUBOWIECKA-KUZIOŁA Sylwia 223OSTROMECKOK4011K 48Tak00:47:10.1500:47:10.15+00:22:486:179.5
175POZNAŃ Mateusz 56FULL SERVICE LADIESGZINM2017M 127Tak00:47:10.8000:47:10.80+00:22:486:179.5
176CHABROS Małgorzata 227THE RUNNERS ŚWIECIEŚWIECIEK2017K 4900:47:15.4000:47:15.40+00:22:536:189.5
177BEDNARCZYK Joanna 80AXA RUNNING TEAMCZARNOWOK3015K 5000:47:22.5000:47:22.50+00:23:006:189.5
178GRABSKA-ZIELIŃSKA Sylwia 19BYDGOSZCZK2018K 5100:48:17.6500:48:17.65+00:23:556:269.3
179ROZMARYNOWICZ Anna 229LOVELASYDĄBROWA CHEŁMIŃSKAK3016K 52Tak00:48:20.1000:48:20.10+00:23:586:269.3
180KNIOŁA Lucyna 49NAKŁO NAD NOTECIĄK505K 5300:48:29.4500:48:29.45+00:24:076:279.3
181GRABSKA Patrycja 20DECATHLON TEAM INOWROCŁAWINOWROCŁAWK2019K 5400:48:41.0000:48:41.00+00:24:196:299.2
182KALISZEWSKI Sławomir 1033KRBIAŁE BŁOTAM3047M 12800:48:42.4500:48:42.45+00:24:206:299.2
183CORREA Andrew 16OSTROMECKOM3048M 129Yes00:49:00.8500:49:00.85+00:24:386:329.2
184NOWAKOWSKA Marta 218DEAFBYDGOSZCZK3017K 5500:49:23.2500:49:23.25+00:25:016:359.1
185ANGIEL Władysław 106TKKF KOLEJARZ BYDGOSZCZBYDGOSZCZM705M 13000:49:41.8500:49:41.85+00:25:196:379.1
186KACZMAREK Agnieszka 34BYDGOSZCZK4012K 5600:49:47.8000:49:47.80+00:25:256:389
187BRODACKI Igor 261DĄBROWA CHEŁMIŃSKAM1611M 131Tak00:51:33.4000:51:33.40+00:27:116:528.7
188KALISZEWSKI Wojciech 1043KRBIAŁE BŁOTAM3049M 13200:52:10.4500:52:10.45+00:27:486:578.6
189KOZIOŁ Karina 60DĄBROWA CHEŁMIŃSKAK3018K 57Tak00:53:15.5500:53:15.55+00:28:537:068.5
190HOŁOWNIA-MLECZEK Izabela 53FULL SERVICE LADIESJAGODOWOK3019K 5800:53:22.6500:53:22.65+00:29:007:068.4
191KUCHARCZYK Jola 158OSTROMECKOK3020K 59Tak00:54:18.2500:54:18.25+00:29:567:148.3
192WILCZEWSKA Monika 143WOLFPACKTORUŃK3021K 6000:54:18.3500:54:18.35+00:29:567:148.3
193KUCHARCZYK Hubert 157OSTROMECKOM4030M 133Tak00:54:19.6500:54:19.65+00:29:577:148.3
Znaleziono 193 wynik(ów)